sensor_id;sensor_type;location;lat;lon;timestamp;temperature;humidity
33077;DHT22;67066;51.964;5.924;2024-03-02T00:02:25;8.10;99.90
33077;DHT22;67066;51.964;5.924;2024-03-02T00:04:51;8.10;99.90
33077;DHT22;67066;51.964;5.924;2024-03-02T00:07:17;8.00;99.90
33077;DHT22;67066;51.964;5.924;2024-03-02T00:09:44;8.00;99.90
33077;DHT22;67066;51.964;5.924;2024-03-02T00:12:12;7.90;99.90
33077;DHT22;67066;51.964;5.924;2024-03-02T00:14:41;8.00;99.90
33077;DHT22;67066;51.964;5.924;2024-03-02T00:17:17;8.00;99.90
33077;DHT22;67066;51.964;5.924;2024-03-02T00:19:47;8.00;99.90
33077;DHT22;67066;51.964;5.924;2024-03-02T00:22:13;8.00;99.90
33077;DHT22;67066;51.964;5.924;2024-03-02T00:24:39;8.00;99.90
33077;DHT22;67066;51.964;5.924;2024-03-02T00:27:07;7.90;99.90
33077;DHT22;67066;51.964;5.924;2024-03-02T00:29:35;8.00;99.90
33077;DHT22;67066;51.964;5.924;2024-03-02T00:32:01;7.90;99.90
33077;DHT22;67066;51.964;5.924;2024-03-02T00:34:27;8.00;99.90
33077;DHT22;67066;51.964;5.924;2024-03-02T00:36:53;8.00;99.90
33077;DHT22;67066;51.964;5.924;2024-03-02T00:39:23;8.10;99.90
33077;DHT22;67066;51.964;5.924;2024-03-02T00:41:49;8.10;99.90
33077;DHT22;67066;51.964;5.924;2024-03-02T00:44:16;8.10;99.90
33077;DHT22;67066;51.964;5.924;2024-03-02T00:46:45;8.00;99.90
33077;DHT22;67066;51.964;5.924;2024-03-02T00:49:23;8.10;99.90
33077;DHT22;67066;51.964;5.924;2024-03-02T00:51:51;8.00;99.90
33077;DHT22;67066;51.964;5.924;2024-03-02T00:54:20;8.10;99.90
33077;DHT22;67066;51.964;5.924;2024-03-02T00:56:47;8.10;99.90
33077;DHT22;67066;51.964;5.924;2024-03-02T00:59:14;8.00;99.90
33077;DHT22;67066;51.964;5.924;2024-03-02T01:01:40;8.00;99.90
33077;DHT22;67066;51.964;5.924;2024-03-02T01:04:08;8.00;99.90
33077;DHT22;67066;51.964;5.924;2024-03-02T01:06:35;8.00;99.90
33077;DHT22;67066;51.964;5.924;2024-03-02T01:09:01;7.90;99.90
33077;DHT22;67066;51.964;5.924;2024-03-02T01:11:28;7.90;99.90
33077;DHT22;67066;51.964;5.924;2024-03-02T01:13:56;7.90;99.90
33077;DHT22;67066;51.964;5.924;2024-03-02T01:16:22;8.00;99.90
33077;DHT22;67066;51.964;5.924;2024-03-02T01:18:48;7.90;99.90
33077;DHT22;67066;51.964;5.924;2024-03-02T01:21:15;7.90;99.90
33077;DHT22;67066;51.964;5.924;2024-03-02T01:23:41;7.80;99.90
33077;DHT22;67066;51.964;5.924;2024-03-02T01:26:07;7.80;99.90
33077;DHT22;67066;51.964;5.924;2024-03-02T01:28:33;7.80;99.90
33077;DHT22;67066;51.964;5.924;2024-03-02T01:30:59;7.80;99.90
33077;DHT22;67066;51.964;5.924;2024-03-02T01:33:25;7.90;99.90
33077;DHT22;67066;51.964;5.924;2024-03-02T01:35:51;7.90;99.90
33077;DHT22;67066;51.964;5.924;2024-03-02T01:38:17;7.90;99.90
33077;DHT22;67066;51.964;5.924;2024-03-02T01:40:43;7.90;99.90
33077;DHT22;67066;51.964;5.924;2024-03-02T01:43:12;7.80;99.90
33077;DHT22;67066;51.964;5.924;2024-03-02T01:45:39;7.90;99.90
33077;DHT22;67066;51.964;5.924;2024-03-02T01:48:06;7.90;99.90
33077;DHT22;67066;51.964;5.924;2024-03-02T01:50:33;7.90;99.90
33077;DHT22;67066;51.964;5.924;2024-03-02T01:52:59;7.90;99.90
33077;DHT22;67066;51.964;5.924;2024-03-02T01:55:26;7.80;99.90
33077;DHT22;67066;51.964;5.924;2024-03-02T01:57:53;7.80;99.90
33077;DHT22;67066;51.964;5.924;2024-03-02T02:00:20;7.70;99.90
33077;DHT22;67066;51.964;5.924;2024-03-02T02:02:49;7.70;99.90
33077;DHT22;67066;51.964;5.924;2024-03-02T02:05:15;7.70;99.90
33077;DHT22;67066;51.964;5.924;2024-03-02T02:07:42;7.70;99.90
33077;DHT22;67066;51.964;5.924;2024-03-02T02:10:09;7.70;99.90
33077;DHT22;67066;51.964;5.924;2024-03-02T02:12:36;7.70;99.90
33077;DHT22;67066;51.964;5.924;2024-03-02T02:15:22;7.70;99.90
33077;DHT22;67066;51.964;5.924;2024-03-02T02:17:48;7.70;99.90
33077;DHT22;67066;51.964;5.924;2024-03-02T02:20:15;7.60;99.90
33077;DHT22;67066;51.964;5.924;2024-03-02T02:22:58;7.60;99.90
33077;DHT22;67066;51.964;5.924;2024-03-02T02:25:25;7.60;99.90
33077;DHT22;67066;51.964;5.924;2024-03-02T02:27:52;7.50;99.90
33077;DHT22;67066;51.964;5.924;2024-03-02T02:30:23;7.60;99.90
33077;DHT22;67066;51.964;5.924;2024-03-02T02:32:49;7.50;99.90
33077;DHT22;67066;51.964;5.924;2024-03-02T02:35:15;7.50;99.90
33077;DHT22;67066;51.964;5.924;2024-03-02T02:37:41;7.50;99.90
33077;DHT22;67066;51.964;5.924;2024-03-02T02:40:08;7.50;99.90
33077;DHT22;67066;51.964;5.924;2024-03-02T02:42:34;7.50;99.90
33077;DHT22;67066;51.964;5.924;2024-03-02T02:45:01;7.50;99.90
33077;DHT22;67066;51.964;5.924;2024-03-02T02:47:27;7.50;99.90
33077;DHT22;67066;51.964;5.924;2024-03-02T02:49:55;7.40;99.90
33077;DHT22;67066;51.964;5.924;2024-03-02T02:52:21;7.40;99.90
33077;DHT22;67066;51.964;5.924;2024-03-02T02:54:47;7.40;99.90
33077;DHT22;67066;51.964;5.924;2024-03-02T02:57:13;7.40;99.90
33077;DHT22;67066;51.964;5.924;2024-03-02T02:59:39;7.40;99.90
33077;DHT22;67066;51.964;5.924;2024-03-02T03:02:05;7.50;99.90
33077;DHT22;67066;51.964;5.924;2024-03-02T03:04:32;7.50;99.90
33077;DHT22;67066;51.964;5.924;2024-03-02T03:06:58;7.40;99.90
33077;DHT22;67066;51.964;5.924;2024-03-02T03:09:24;7.40;99.90
33077;DHT22;67066;51.964;5.924;2024-03-02T03:11:50;7.40;99.90
33077;DHT22;67066;51.964;5.924;2024-03-02T03:14:16;7.30;99.90
33077;DHT22;67066;51.964;5.924;2024-03-02T03:16:42;7.30;99.90
33077;DHT22;67066;51.964;5.924;2024-03-02T03:19:08;7.30;99.90
33077;DHT22;67066;51.964;5.924;2024-03-02T03:21:34;7.30;99.90
33077;DHT22;67066;51.964;5.924;2024-03-02T03:24:00;7.30;99.90
33077;DHT22;67066;51.964;5.924;2024-03-02T03:26:26;7.20;99.90
33077;DHT22;67066;51.964;5.924;2024-03-02T03:28:52;7.20;99.90
33077;DHT22;67066;51.964;5.924;2024-03-02T03:31:19;7.20;99.90
33077;DHT22;67066;51.964;5.924;2024-03-02T03:33:45;7.20;99.90
33077;DHT22;67066;51.964;5.924;2024-03-02T03:36:11;7.20;99.90
33077;DHT22;67066;51.964;5.924;2024-03-02T03:38:37;7.20;99.90
33077;DHT22;67066;51.964;5.924;2024-03-02T03:41:03;7.20;99.90
33077;DHT22;67066;51.964;5.924;2024-03-02T03:43:29;7.20;99.90
33077;DHT22;67066;51.964;5.924;2024-03-02T03:45:55;7.20;99.90
33077;DHT22;67066;51.964;5.924;2024-03-02T03:48:21;7.10;99.90
33077;DHT22;67066;51.964;5.924;2024-03-02T03:50:47;7.10;99.90
33077;DHT22;67066;51.964;5.924;2024-03-02T03:53:13;7.10;99.90
33077;DHT22;67066;51.964;5.924;2024-03-02T03:55:40;7.10;99.90
33077;DHT22;67066;51.964;5.924;2024-03-02T03:58:06;7.10;99.90
33077;DHT22;67066;51.964;5.924;2024-03-02T04:00:32;7.10;99.90
33077;DHT22;67066;51.964;5.924;2024-03-02T04:02:58;7.00;99.90
33077;DHT22;67066;51.964;5.924;2024-03-02T04:05:24;7.00;99.90
33077;DHT22;67066;51.964;5.924;2024-03-02T04:07:50;7.00;99.90
33077;DHT22;67066;51.964;5.924;2024-03-02T04:10:16;6.90;99.90
33077;DHT22;67066;51.964;5.924;2024-03-02T04:12:43;6.90;99.90
33077;DHT22;67066;51.964;5.924;2024-03-02T04:15:09;6.90;99.90
33077;DHT22;67066;51.964;5.924;2024-03-02T04:17:35;6.90;99.90
33077;DHT22;67066;51.964;5.924;2024-03-02T04:20:01;6.90;99.90
33077;DHT22;67066;51.964;5.924;2024-03-02T04:22:27;7.00;99.90
33077;DHT22;67066;51.964;5.924;2024-03-02T04:24:53;6.90;99.90
33077;DHT22;67066;51.964;5.924;2024-03-02T04:27:20;6.90;99.90
33077;DHT22;67066;51.964;5.924;2024-03-02T04:29:46;6.90;99.90
33077;DHT22;67066;51.964;5.924;2024-03-02T04:32:12;6.90;99.90
33077;DHT22;67066;51.964;5.924;2024-03-02T04:34:38;6.90;99.90
33077;DHT22;67066;51.964;5.924;2024-03-02T04:37:04;6.80;99.90
33077;DHT22;67066;51.964;5.924;2024-03-02T04:39:30;6.80;99.90
33077;DHT22;67066;51.964;5.924;2024-03-02T04:41:56;6.80;99.90
33077;DHT22;67066;51.964;5.924;2024-03-02T04:44:24;6.80;99.90
33077;DHT22;67066;51.964;5.924;2024-03-02T04:46:50;6.80;99.90
33077;DHT22;67066;51.964;5.924;2024-03-02T04:49:16;6.80;99.90
33077;DHT22;67066;51.964;5.924;2024-03-02T04:51:42;6.80;99.90
33077;DHT22;67066;51.964;5.924;2024-03-02T04:54:08;6.70;99.90
33077;DHT22;67066;51.964;5.924;2024-03-02T04:56:34;6.60;99.90
33077;DHT22;67066;51.964;5.924;2024-03-02T04:59:10;6.60;99.90
33077;DHT22;67066;51.964;5.924;2024-03-02T05:01:36;6.60;99.90
33077;DHT22;67066;51.964;5.924;2024-03-02T05:04:02;6.40;99.90
33077;DHT22;67066;51.964;5.924;2024-03-02T05:06:28;6.40;99.90
33077;DHT22;67066;51.964;5.924;2024-03-02T05:08:55;6.40;99.90
33077;DHT22;67066;51.964;5.924;2024-03-02T05:11:22;6.30;99.90
33077;DHT22;67066;51.964;5.924;2024-03-02T05:14:17;6.30;99.90
33077;DHT22;67066;51.964;5.924;2024-03-02T05:16:43;6.20;99.90
33077;DHT22;67066;51.964;5.924;2024-03-02T05:19:09;6.20;99.90
33077;DHT22;67066;51.964;5.924;2024-03-02T05:21:35;6.20;99.90
33077;DHT22;67066;51.964;5.924;2024-03-02T05:24:01;6.10;99.90
33077;DHT22;67066;51.964;5.924;2024-03-02T05:26:27;6.10;99.90
33077;DHT22;67066;51.964;5.924;2024-03-02T05:28:53;6.10;99.90
33077;DHT22;67066;51.964;5.924;2024-03-02T05:31:19;6.20;99.90
33077;DHT22;67066;51.964;5.924;2024-03-02T05:33:45;6.20;99.90
33077;DHT22;67066;51.964;5.924;2024-03-02T05:36:11;6.20;99.90
33077;DHT22;67066;51.964;5.924;2024-03-02T05:38:37;6.20;99.90
33077;DHT22;67066;51.964;5.924;2024-03-02T05:41:03;6.20;99.90
33077;DHT22;67066;51.964;5.924;2024-03-02T05:43:29;6.20;99.90
33077;DHT22;67066;51.964;5.924;2024-03-02T05:45:55;6.20;99.90
33077;DHT22;67066;51.964;5.924;2024-03-02T05:48:21;6.10;99.90
33077;DHT22;67066;51.964;5.924;2024-03-02T05:50:47;6.20;99.90
33077;DHT22;67066;51.964;5.924;2024-03-02T05:53:13;6.10;99.90
33077;DHT22;67066;51.964;5.924;2024-03-02T05:55:41;6.10;99.90
33077;DHT22;67066;51.964;5.924;2024-03-02T05:58:07;6.00;99.90
33077;DHT22;67066;51.964;5.924;2024-03-02T06:00:58;6.00;99.90
33077;DHT22;67066;51.964;5.924;2024-03-02T06:03:24;6.00;99.90
33077;DHT22;67066;51.964;5.924;2024-03-02T06:05:50;5.90;99.90
33077;DHT22;67066;51.964;5.924;2024-03-02T06:08:16;5.90;99.90
33077;DHT22;67066;51.964;5.924;2024-03-02T06:10:43;5.80;99.90
33077;DHT22;67066;51.964;5.924;2024-03-02T06:13:09;5.70;99.90
33077;DHT22;67066;51.964;5.924;2024-03-02T06:15:35;5.70;99.90
33077;DHT22;67066;51.964;5.924;2024-03-02T06:18:02;5.70;99.90
33077;DHT22;67066;51.964;5.924;2024-03-02T06:20:28;5.60;99.90
33077;DHT22;67066;51.964;5.924;2024-03-02T06:22:56;5.50;99.90
33077;DHT22;67066;51.964;5.924;2024-03-02T06:25:24;5.50;99.90
33077;DHT22;67066;51.964;5.924;2024-03-02T06:27:50;5.40;99.90
33077;DHT22;67066;51.964;5.924;2024-03-02T06:30:17;5.40;99.90
33077;DHT22;67066;51.964;5.924;2024-03-02T06:32:43;5.40;99.90
33077;DHT22;67066;51.964;5.924;2024-03-02T06:35:09;5.50;99.90
33077;DHT22;67066;51.964;5.924;2024-03-02T06:37:39;5.50;99.90
33077;DHT22;67066;51.964;5.924;2024-03-02T06:40:08;5.60;99.90
33077;DHT22;67066;51.964;5.924;2024-03-02T06:42:35;5.70;99.90
33077;DHT22;67066;51.964;5.924;2024-03-02T06:45:02;5.70;99.90
33077;DHT22;67066;51.964;5.924;2024-03-02T06:47:28;5.80;99.90
33077;DHT22;67066;51.964;5.924;2024-03-02T06:49:54;5.90;99.90
33077;DHT22;67066;51.964;5.924;2024-03-02T06:52:20;6.00;99.90
33077;DHT22;67066;51.964;5.924;2024-03-02T06:54:46;6.20;99.90
33077;DHT22;67066;51.964;5.924;2024-03-02T06:57:12;6.30;99.90
33077;DHT22;67066;51.964;5.924;2024-03-02T06:59:38;6.40;99.90
33077;DHT22;67066;51.964;5.924;2024-03-02T07:02:04;6.30;99.90
33077;DHT22;67066;51.964;5.924;2024-03-02T07:04:30;6.30;99.90
33077;DHT22;67066;51.964;5.924;2024-03-02T07:06:56;6.20;99.90
33077;DHT22;67066;51.964;5.924;2024-03-02T07:09:23;6.20;99.90
33077;DHT22;67066;51.964;5.924;2024-03-02T07:11:49;6.10;99.90
33077;DHT22;67066;51.964;5.924;2024-03-02T07:14:15;6.10;99.90
33077;DHT22;67066;51.964;5.924;2024-03-02T07:16:41;6.10;99.90
33077;DHT22;67066;51.964;5.924;2024-03-02T07:19:09;6.10;99.90
33077;DHT22;67066;51.964;5.924;2024-03-02T07:21:35;6.20;99.90
33077;DHT22;67066;51.964;5.924;2024-03-02T07:24:01;6.20;99.90
33077;DHT22;67066;51.964;5.924;2024-03-02T07:26:31;6.20;99.90
33077;DHT22;67066;51.964;5.924;2024-03-02T07:28:57;6.30;99.90
33077;DHT22;67066;51.964;5.924;2024-03-02T07:31:23;6.30;99.90
33077;DHT22;67066;51.964;5.924;2024-03-02T07:33:49;6.40;99.90
33077;DHT22;67066;51.964;5.924;2024-03-02T07:36:15;6.40;99.90
33077;DHT22;67066;51.964;5.924;2024-03-02T07:38:42;6.40;99.90
33077;DHT22;67066;51.964;5.924;2024-03-02T07:41:10;6.50;99.90
33077;DHT22;67066;51.964;5.924;2024-03-02T07:43:37;6.50;99.90
33077;DHT22;67066;51.964;5.924;2024-03-02T07:46:03;6.50;99.90
33077;DHT22;67066;51.964;5.924;2024-03-02T07:48:29;6.60;99.90
33077;DHT22;67066;51.964;5.924;2024-03-02T07:50:56;6.70;99.90
33077;DHT22;67066;51.964;5.924;2024-03-02T07:53:22;6.80;99.90
33077;DHT22;67066;51.964;5.924;2024-03-02T07:55:48;6.80;99.90
33077;DHT22;67066;51.964;5.924;2024-03-02T07:58:14;6.90;99.90
33077;DHT22;67066;51.964;5.924;2024-03-02T08:00:40;7.00;99.90
33077;DHT22;67066;51.964;5.924;2024-03-02T08:03:07;7.10;99.90
33077;DHT22;67066;51.964;5.924;2024-03-02T08:05:37;7.10;99.90
33077;DHT22;67066;51.964;5.924;2024-03-02T08:08:04;7.30;99.90
33077;DHT22;67066;51.964;5.924;2024-03-02T08:10:30;7.40;99.90
33077;DHT22;67066;51.964;5.924;2024-03-02T08:12:56;7.50;99.90
33077;DHT22;67066;51.964;5.924;2024-03-02T08:15:24;7.70;99.90
33077;DHT22;67066;51.964;5.924;2024-03-02T08:17:50;7.80;99.90
33077;DHT22;67066;51.964;5.924;2024-03-02T08:20:16;8.00;99.90
33077;DHT22;67066;51.964;5.924;2024-03-02T08:22:42;8.10;99.90
33077;DHT22;67066;51.964;5.924;2024-03-02T08:25:09;8.30;99.90
33077;DHT22;67066;51.964;5.924;2024-03-02T08:27:35;8.40;99.90
33077;DHT22;67066;51.964;5.924;2024-03-02T08:30:01;8.60;99.90
33077;DHT22;67066;51.964;5.924;2024-03-02T08:32:29;8.60;99.90
33077;DHT22;67066;51.964;5.924;2024-03-02T08:34:55;8.70;99.90
33077;DHT22;67066;51.964;5.924;2024-03-02T08:37:21;8.80;99.90
33077;DHT22;67066;51.964;5.924;2024-03-02T08:39:47;8.90;99.90
33077;DHT22;67066;51.964;5.924;2024-03-02T08:42:13;8.90;99.90
33077;DHT22;67066;51.964;5.924;2024-03-02T08:44:39;9.00;99.90
33077;DHT22;67066;51.964;5.924;2024-03-02T08:47:05;9.20;99.90
33077;DHT22;67066;51.964;5.924;2024-03-02T08:49:31;9.30;99.90
33077;DHT22;67066;51.964;5.924;2024-03-02T08:51:58;9.50;99.90
33077;DHT22;67066;51.964;5.924;2024-03-02T08:54:24;9.50;99.90
33077;DHT22;67066;51.964;5.924;2024-03-02T08:56:50;9.60;99.90
33077;DHT22;67066;51.964;5.924;2024-03-02T08:59:16;9.80;99.90
33077;DHT22;67066;51.964;5.924;2024-03-02T09:01:43;9.90;99.90
33077;DHT22;67066;51.964;5.924;2024-03-02T09:04:09;9.90;99.90
33077;DHT22;67066;51.964;5.924;2024-03-02T09:06:35;10.00;99.90
33077;DHT22;67066;51.964;5.924;2024-03-02T09:09:01;10.10;99.90
33077;DHT22;67066;51.964;5.924;2024-03-02T09:11:27;10.20;99.90
33077;DHT22;67066;51.964;5.924;2024-03-02T09:13:53;10.30;99.90
33077;DHT22;67066;51.964;5.924;2024-03-02T09:16:21;10.40;99.90
33077;DHT22;67066;51.964;5.924;2024-03-02T09:18:47;10.40;99.90
33077;DHT22;67066;51.964;5.924;2024-03-02T09:21:13;10.50;99.90
33077;DHT22;67066;51.964;5.924;2024-03-02T09:23:41;10.50;99.90
33077;DHT22;67066;51.964;5.924;2024-03-02T09:26:07;10.60;99.90
33077;DHT22;67066;51.964;5.924;2024-03-02T09:28:33;10.50;99.90
33077;DHT22;67066;51.964;5.924;2024-03-02T09:31:01;10.40;99.90
33077;DHT22;67066;51.964;5.924;2024-03-02T09:33:27;10.40;99.90
33077;DHT22;67066;51.964;5.924;2024-03-02T09:35:53;10.50;99.90
33077;DHT22;67066;51.964;5.924;2024-03-02T09:38:19;10.50;99.90
33077;DHT22;67066;51.964;5.924;2024-03-02T09:40:45;10.70;99.90
33077;DHT22;67066;51.964;5.924;2024-03-02T09:43:11;10.70;99.90
33077;DHT22;67066;51.964;5.924;2024-03-02T09:45:37;10.70;99.90
33077;DHT22;67066;51.964;5.924;2024-03-02T09:48:07;10.70;99.90
33077;DHT22;67066;51.964;5.924;2024-03-02T09:50:33;10.70;99.90
33077;DHT22;67066;51.964;5.924;2024-03-02T09:52:59;10.80;99.90
33077;DHT22;67066;51.964;5.924;2024-03-02T09:55:25;10.80;99.90
33077;DHT22;67066;51.964;5.924;2024-03-02T09:57:51;10.70;99.90
33077;DHT22;67066;51.964;5.924;2024-03-02T10:00:18;10.70;99.90
33077;DHT22;67066;51.964;5.924;2024-03-02T10:02:44;10.80;99.90
33077;DHT22;67066;51.964;5.924;2024-03-02T10:05:10;10.80;99.90
33077;DHT22;67066;51.964;5.924;2024-03-02T10:07:37;11.00;99.90
33077;DHT22;67066;51.964;5.924;2024-03-02T10:10:13;11.10;99.90
33077;DHT22;67066;51.964;5.924;2024-03-02T10:12:40;11.20;99.90
33077;DHT22;67066;51.964;5.924;2024-03-02T10:15:06;11.30;99.90
33077;DHT22;67066;51.964;5.924;2024-03-02T10:17:33;11.40;99.90
33077;DHT22;67066;51.964;5.924;2024-03-02T10:19:59;11.40;99.90
33077;DHT22;67066;51.964;5.924;2024-03-02T10:22:25;11.40;99.90
33077;DHT22;67066;51.964;5.924;2024-03-02T10:24:52;11.50;99.90
33077;DHT22;67066;51.964;5.924;2024-03-02T10:27:25;11.60;99.90
33077;DHT22;67066;51.964;5.924;2024-03-02T10:29:52;11.70;99.90
33077;DHT22;67066;51.964;5.924;2024-03-02T10:32:18;11.70;99.90
33077;DHT22;67066;51.964;5.924;2024-03-02T10:34:46;11.90;99.90
33077;DHT22;67066;51.964;5.924;2024-03-02T10:37:14;12.00;99.90
33077;DHT22;67066;51.964;5.924;2024-03-02T10:39:42;12.00;99.90
33077;DHT22;67066;51.964;5.924;2024-03-02T10:42:09;12.10;99.90
33077;DHT22;67066;51.964;5.924;2024-03-02T10:44:35;12.10;99.90
33077;DHT22;67066;51.964;5.924;2024-03-02T10:47:03;12.20;99.90
33077;DHT22;67066;51.964;5.924;2024-03-02T10:49:33;12.10;99.90
33077;DHT22;67066;51.964;5.924;2024-03-02T10:51:59;12.10;99.90
33077;DHT22;67066;51.964;5.924;2024-03-02T10:54:26;12.10;99.90
33077;DHT22;67066;51.964;5.924;2024-03-02T10:56:59;12.10;99.90
33077;DHT22;67066;51.964;5.924;2024-03-02T10:59:34;12.10;99.90
33077;DHT22;67066;51.964;5.924;2024-03-02T11:02:03;12.20;99.90
33077;DHT22;67066;51.964;5.924;2024-03-02T11:04:30;12.20;99.90
33077;DHT22;67066;51.964;5.924;2024-03-02T11:09:28;12.20;99.90
33077;DHT22;67066;51.964;5.924;2024-03-02T11:12:26;12.30;99.90
33077;DHT22;67066;51.964;5.924;2024-03-02T11:14:56;12.30;99.90
33077;DHT22;67066;51.964;5.924;2024-03-02T11:17:23;12.30;99.90
33077;DHT22;67066;51.964;5.924;2024-03-02T11:19:50;12.30;99.90
33077;DHT22;67066;51.964;5.924;2024-03-02T11:22:17;12.30;99.90
33077;DHT22;67066;51.964;5.924;2024-03-02T11:24:50;12.30;99.90
33077;DHT22;67066;51.964;5.924;2024-03-02T11:32:59;12.50;99.90
33077;DHT22;67066;51.964;5.924;2024-03-02T11:35:26;12.50;99.90
33077;DHT22;67066;51.964;5.924;2024-03-02T11:37:54;12.60;99.90
33077;DHT22;67066;51.964;5.924;2024-03-02T11:40:24;12.60;99.90
33077;DHT22;67066;51.964;5.924;2024-03-02T11:42:51;12.60;99.90
33077;DHT22;67066;51.964;5.924;2024-03-02T11:45:23;12.70;99.90
33077;DHT22;67066;51.964;5.924;2024-03-02T11:47:57;12.50;99.90
33077;DHT22;67066;51.964;5.924;2024-03-02T11:52:58;12.60;99.90
33077;DHT22;67066;51.964;5.924;2024-03-02T11:55:26;12.50;99.90
33077;DHT22;67066;51.964;5.924;2024-03-02T11:57:53;12.50;99.90
33077;DHT22;67066;51.964;5.924;2024-03-02T12:00:20;12.70;99.90
33077;DHT22;67066;51.964;5.924;2024-03-02T12:02:48;12.80;99.90
33077;DHT22;67066;51.964;5.924;2024-03-02T12:05:26;12.80;99.90
33077;DHT22;67066;51.964;5.924;2024-03-02T12:08:00;12.80;99.90
33077;DHT22;67066;51.964;5.924;2024-03-02T12:10:27;12.80;99.90
33077;DHT22;67066;51.964;5.924;2024-03-02T12:13:01;12.90;99.90
33077;DHT22;67066;51.964;5.924;2024-03-02T12:15:30;12.80;99.90
33077;DHT22;67066;51.964;5.924;2024-03-02T12:17:57;12.70;99.90
33077;DHT22;67066;51.964;5.924;2024-03-02T12:20:25;12.80;99.90
33077;DHT22;67066;51.964;5.924;2024-03-02T12:22:52;12.80;99.90
33077;DHT22;67066;51.964;5.924;2024-03-02T12:25:20;12.70;99.90
33077;DHT22;67066;51.964;5.924;2024-03-02T12:27:47;12.80;99.90
33077;DHT22;67066;51.964;5.924;2024-03-02T12:30:17;13.00;99.90
33077;DHT22;67066;51.964;5.924;2024-03-02T12:32:44;13.00;99.90
33077;DHT22;67066;51.964;5.924;2024-03-02T12:35:11;13.00;99.90
33077;DHT22;67066;51.964;5.924;2024-03-02T12:37:58;13.00;99.90
33077;DHT22;67066;51.964;5.924;2024-03-02T12:40:24;13.00;99.90
33077;DHT22;67066;51.964;5.924;2024-03-02T12:42:51;13.00;99.90
33077;DHT22;67066;51.964;5.924;2024-03-02T12:45:17;13.00;99.90
33077;DHT22;67066;51.964;5.924;2024-03-02T12:47:49;12.80;99.90
33077;DHT22;67066;51.964;5.924;2024-03-02T12:50:17;12.80;99.90
33077;DHT22;67066;51.964;5.924;2024-03-02T12:52:44;12.90;99.90
33077;DHT22;67066;51.964;5.924;2024-03-02T12:55:16;13.00;99.90
33077;DHT22;67066;51.964;5.924;2024-03-02T12:57:44;13.20;99.90
33077;DHT22;67066;51.964;5.924;2024-03-02T13:00:10;13.30;99.90
33077;DHT22;67066;51.964;5.924;2024-03-02T13:02:40;13.30;99.90
33077;DHT22;67066;51.964;5.924;2024-03-02T13:05:07;13.40;99.90
33077;DHT22;67066;51.964;5.924;2024-03-02T13:07:40;13.30;99.90
33077;DHT22;67066;51.964;5.924;2024-03-02T13:10:07;13.20;99.90
33077;DHT22;67066;51.964;5.924;2024-03-02T13:12:37;13.10;99.90
33077;DHT22;67066;51.964;5.924;2024-03-02T13:15:04;13.10;99.90
33077;DHT22;67066;51.964;5.924;2024-03-02T13:17:31;13.10;99.90
33077;DHT22;67066;51.964;5.924;2024-03-02T13:19:59;13.00;99.90
33077;DHT22;67066;51.964;5.924;2024-03-02T13:22:26;13.10;99.90
33077;DHT22;67066;51.964;5.924;2024-03-02T13:24:53;13.00;99.90
33077;DHT22;67066;51.964;5.924;2024-03-02T13:27:22;13.00;99.90
33077;DHT22;67066;51.964;5.924;2024-03-02T13:29:49;13.00;99.90
33077;DHT22;67066;51.964;5.924;2024-03-02T13:32:15;13.00;99.90
33077;DHT22;67066;51.964;5.924;2024-03-02T13:34:42;13.10;99.90
33077;DHT22;67066;51.964;5.924;2024-03-02T13:37:09;13.10;99.90
33077;DHT22;67066;51.964;5.924;2024-03-02T13:39:35;13.20;99.90
33077;DHT22;67066;51.964;5.924;2024-03-02T13:42:09;13.20;99.90
33077;DHT22;67066;51.964;5.924;2024-03-02T13:44:35;13.30;99.90
33077;DHT22;67066;51.964;5.924;2024-03-02T13:47:01;13.30;99.90
33077;DHT22;67066;51.964;5.924;2024-03-02T13:49:28;13.30;99.90
33077;DHT22;67066;51.964;5.924;2024-03-02T13:52:00;13.20;99.90
33077;DHT22;67066;51.964;5.924;2024-03-02T13:54:29;13.10;99.90
33077;DHT22;67066;51.964;5.924;2024-03-02T13:56:57;13.00;99.90
33077;DHT22;67066;51.964;5.924;2024-03-02T13:59:25;13.00;99.90
33077;DHT22;67066;51.964;5.924;2024-03-02T14:01:52;12.90;99.90
33077;DHT22;67066;51.964;5.924;2024-03-02T14:04:18;12.90;99.90
33077;DHT22;67066;51.964;5.924;2024-03-02T14:06:44;12.80;99.90
33077;DHT22;67066;51.964;5.924;2024-03-02T14:09:10;12.90;99.90
33077;DHT22;67066;51.964;5.924;2024-03-02T14:11:36;12.80;99.90
33077;DHT22;67066;51.964;5.924;2024-03-02T14:14:02;12.80;99.90
33077;DHT22;67066;51.964;5.924;2024-03-02T14:16:28;12.80;99.90
33077;DHT22;67066;51.964;5.924;2024-03-02T14:18:55;12.90;99.90
33077;DHT22;67066;51.964;5.924;2024-03-02T14:21:21;12.90;99.90
33077;DHT22;67066;51.964;5.924;2024-03-02T14:23:47;12.90;99.90
33077;DHT22;67066;51.964;5.924;2024-03-02T14:26:13;13.00;99.90
33077;DHT22;67066;51.964;5.924;2024-03-02T14:28:39;13.00;99.90
33077;DHT22;67066;51.964;5.924;2024-03-02T14:31:05;13.10;99.90
33077;DHT22;67066;51.964;5.924;2024-03-02T14:33:31;13.10;99.90
33077;DHT22;67066;51.964;5.924;2024-03-02T14:35:58;13.10;99.90
33077;DHT22;67066;51.964;5.924;2024-03-02T14:38:24;13.20;99.90
33077;DHT22;67066;51.964;5.924;2024-03-02T14:40:50;13.30;99.90
33077;DHT22;67066;51.964;5.924;2024-03-02T14:43:16;13.40;99.90
33077;DHT22;67066;51.964;5.924;2024-03-02T14:45:43;13.40;99.90
33077;DHT22;67066;51.964;5.924;2024-03-02T14:48:09;13.30;99.90
33077;DHT22;67066;51.964;5.924;2024-03-02T14:50:35;13.40;99.90
33077;DHT22;67066;51.964;5.924;2024-03-02T14:53:01;13.40;99.90
33077;DHT22;67066;51.964;5.924;2024-03-02T14:55:28;13.30;99.90
33077;DHT22;67066;51.964;5.924;2024-03-02T14:57:54;13.30;99.90
33077;DHT22;67066;51.964;5.924;2024-03-02T15:00:20;13.30;99.90
33077;DHT22;67066;51.964;5.924;2024-03-02T15:02:46;13.20;99.90
33077;DHT22;67066;51.964;5.924;2024-03-02T15:05:12;13.20;99.90
33077;DHT22;67066;51.964;5.924;2024-03-02T15:07:38;13.20;99.90
33077;DHT22;67066;51.964;5.924;2024-03-02T15:10:05;13.10;99.90
33077;DHT22;67066;51.964;5.924;2024-03-02T15:12:31;13.10;99.90
33077;DHT22;67066;51.964;5.924;2024-03-02T15:14:57;13.10;99.90
33077;DHT22;67066;51.964;5.924;2024-03-02T15:17:24;13.00;99.90
33077;DHT22;67066;51.964;5.924;2024-03-02T15:19:50;13.10;99.90
33077;DHT22;67066;51.964;5.924;2024-03-02T15:22:20;13.00;99.90
33077;DHT22;67066;51.964;5.924;2024-03-02T15:24:46;12.90;99.90
33077;DHT22;67066;51.964;5.924;2024-03-02T15:27:12;12.90;99.90
33077;DHT22;67066;51.964;5.924;2024-03-02T15:29:38;13.00;99.90
33077;DHT22;67066;51.964;5.924;2024-03-02T15:32:04;13.00;99.90
33077;DHT22;67066;51.964;5.924;2024-03-02T15:34:33;13.00;99.90
33077;DHT22;67066;51.964;5.924;2024-03-02T15:36:59;13.00;99.90
33077;DHT22;67066;51.964;5.924;2024-03-02T15:39:26;12.90;99.90
33077;DHT22;67066;51.964;5.924;2024-03-02T15:41:52;12.90;99.90
33077;DHT22;67066;51.964;5.924;2024-03-02T15:44:18;12.90;99.90
33077;DHT22;67066;51.964;5.924;2024-03-02T15:46:44;12.80;99.90
33077;DHT22;67066;51.964;5.924;2024-03-02T15:49:10;12.80;99.90
33077;DHT22;67066;51.964;5.924;2024-03-02T15:51:37;12.80;99.90